Time;durP1;ratioP1;P1;durP2;ratioP2;P2;SDS_P1;SDS_P2;PMS_P1;PMS_P2;Temp;Humidity;BMP_temperature;BMP_pressure;BME280_temperature;BME280_humidity;BME280_pressure;Samples;Min_cycle;Max_cycle;Signal;HPM_P1;HPM_P2
2022/03/30 00:02:14;;;;;;;;;;;12.60;55.80;;;;;;5051795;28;87418;-53
2022/03/30 00:04:40;;;;;;;;;;;12.50;55.80;;;;;;5048909;28;88138;-54
2022/03/30 00:07:06;;;;;;;;;;;12.60;55.90;;;;;;5047830;28;89499;-56
2022/03/30 00:09:32;;;;;;;;;;;12.60;55.90;;;;;;5048874;28;86915;-56
2022/03/30 00:11:58;;;;;;;;;;;12.50;55.90;;;;;;5048818;28;87906;-53
2022/03/30 00:14:24;;;;;;;;;;;12.50;55.90;;;;;;5048301;28;87607;-55
2022/03/30 00:16:51;;;;;;;;;;;12.50;55.80;;;;;;5048815;28;87202;-53
2022/03/30 00:19:18;;;;;;;;;;;12.50;55.80;;;;;;5048739;28;86963;-56
2022/03/30 00:21:44;;;;;;;;;;;12.50;56.00;;;;;;5048200;28;88739;-55
2022/03/30 00:24:10;;;;;;;;;;;12.40;55.90;;;;;;5051946;28;86126;-56
2022/03/30 00:26:36;;;;;;;;;;;12.40;55.90;;;;;;5047825;28;87631;-55
2022/03/30 00:29:03;;;;;;;;;;;12.40;55.70;;;;;;5048449;28;86950;-56
2022/03/30 00:31:29;;;;;;;;;;;12.40;55.90;;;;;;5047808;28;87852;-52
2022/03/30 00:33:54;;;;;;;;;;;12.50;55.90;;;;;;5048100;28;87682;-54
2022/03/30 00:36:20;;;;;;;;;;;12.40;55.90;;;;;;5048594;28;86983;-53
2022/03/30 00:38:46;;;;;;;;;;;12.40;56.00;;;;;;5048125;28;87797;-56
2022/03/30 00:41:11;;;;;;;;;;;12.40;55.90;;;;;;5047893;28;87606;-53
2022/03/30 00:43:37;;;;;;;;;;;12.40;55.90;;;;;;5048153;28;87089;-56
2022/03/30 00:46:03;;;;;;;;;;;12.30;56.00;;;;;;5050817;28;88229;-56
2022/03/30 00:48:29;;;;;;;;;;;12.30;55.90;;;;;;5048364;27;86057;-53
2022/03/30 00:50:55;;;;;;;;;;;12.30;55.90;;;;;;5047511;28;87602;-55
2022/03/30 00:53:20;;;;;;;;;;;12.30;56.00;;;;;;5047816;28;87595;-55
2022/03/30 00:55:46;;;;;;;;;;;12.30;56.20;;;;;;5047697;28;88191;-55
2022/03/30 00:58:12;;;;;;;;;;;12.30;56.00;;;;;;5048269;28;87836;-55
2022/03/30 01:00:38;;;;;;;;;;;12.30;56.10;;;;;;5047880;28;88033;-56
2022/03/30 01:03:04;;;;;;;;;;;12.20;56.00;;;;;;5048050;28;86860;-53
2022/03/30 01:05:29;;;;;;;;;;;12.20;56.00;;;;;;5047905;28;87894;-56
2022/03/30 01:07:58;;;;;;;;;;;12.20;56.10;;;;;;5050802;28;87156;-56
2022/03/30 01:10:24;;;;;;;;;;;12.20;56.00;;;;;;5047623;28;86943;-55
2022/03/30 01:12:52;;;;;;;;;;;12.20;56.10;;;;;;5047922;28;86912;-55
2022/03/30 01:15:18;;;;;;;;;;;12.20;56.10;;;;;;5047829;28;86816;-53
2022/03/30 01:17:44;;;;;;;;;;;12.20;56.10;;;;;;5047737;28;87303;-56
2022/03/30 01:20:10;;;;;;;;;;;12.20;56.10;;;;;;5046558;28;89404;-53
2022/03/30 01:22:36;;;;;;;;;;;12.20;56.00;;;;;;5047685;28;86958;-55
2022/03/30 01:25:02;;;;;;;;;;;12.20;56.10;;;;;;5047906;28;86756;-56
2022/03/30 01:27:28;;;;;;;;;;;12.20;56.10;;;;;;5055484;27;87682;-56
2022/03/30 01:32:38;;;;;;;;;;;12.10;56.20;;;;;;5044236;28;87179;-56
2022/03/30 01:35:05;;;;;;;;;;;12.10;56.10;;;;;;5047480;28;86940;-56
2022/03/30 01:37:32;;;;;;;;;;;12.10;56.20;;;;;;5047573;28;88230;-56
2022/03/30 01:39:59;;;;;;;;;;;12.10;56.20;;;;;;5047025;28;88853;-55
2022/03/30 01:42:25;;;;;;;;;;;12.00;56.20;;;;;;5047212;28;87072;-56
2022/03/30 01:44:50;;;;;;;;;;;12.00;56.20;;;;;;5046721;28;87953;-55
2022/03/30 01:47:16;;;;;;;;;;;12.00;56.30;;;;;;5047167;28;87375;-52
2022/03/30 01:49:42;;;;;;;;;;;12.00;56.20;;;;;;5047300;28;87000;-53
2022/03/30 01:52:08;;;;;;;;;;;12.00;56.30;;;;;;5049721;28;87837;-53
2022/03/30 01:54:35;;;;;;;;;;;12.00;56.30;;;;;;5047463;28;86842;-55
2022/03/30 01:57:01;;;;;;;;;;;12.00;56.30;;;;;;5046176;28;87874;-53
2022/03/30 01:59:27;;;;;;;;;;;12.00;56.30;;;;;;5046599;28;88657;-54
2022/03/30 02:01:53;;;;;;;;;;;12.00;56.20;;;;;;5047065;27;86201;-55
2022/03/30 02:04:19;;;;;;;;;;;12.00;56.30;;;;;;5047092;28;87143;-52
2022/03/30 02:06:45;;;;;;;;;;;12.00;56.30;;;;;;5046797;28;89042;-52
2022/03/30 02:09:12;;;;;;;;;;;11.90;56.30;;;;;;5046583;28;87810;-55
2022/03/30 02:11:38;;;;;;;;;;;11.90;56.30;;;;;;5048728;28;86997;-56
2022/03/30 02:14:04;;;;;;;;;;;11.90;56.30;;;;;;5047143;28;86970;-52
2022/03/30 02:16:30;;;;;;;;;;;11.90;56.40;;;;;;5047204;28;86844;-52
2022/03/30 02:18:55;;;;;;;;;;;11.90;56.40;;;;;;5046603;28;87586;-51
2022/03/30 02:21:21;;;;;;;;;;;11.90;56.40;;;;;;5046764;28;86797;-52
2022/03/30 02:23:46;;;;;;;;;;;11.90;56.40;;;;;;5046795;28;87399;-54
2022/03/30 02:26:13;;;;;;;;;;;11.90;56.40;;;;;;5047124;28;86654;-51
2022/03/30 02:28:39;;;;;;;;;;;11.80;56.40;;;;;;5046662;28;87271;-52
2022/03/30 02:31:05;;;;;;;;;;;11.80;56.40;;;;;;5046739;28;87907;-53
2022/03/30 02:33:31;;;;;;;;;;;11.80;57.10;;;;;;5048462;28;89584;-52
2022/03/30 02:35:56;;;;;;;;;;;11.80;56.50;;;;;;5046536;28;88572;-54
2022/03/30 02:38:22;;;;;;;;;;;11.80;56.60;;;;;;5045349;28;88499;-51
2022/03/30 02:40:48;;;;;;;;;;;11.80;56.60;;;;;;5046430;28;87025;-52
2022/03/30 02:43:16;;;;;;;;;;;11.70;56.60;;;;;;5046365;28;88065;-51
2022/03/30 02:45:43;;;;;;;;;;;11.70;56.60;;;;;;5046020;28;88520;-51
2022/03/30 02:48:18;;;;;;;;;;;11.70;56.70;;;;;;5046766;28;86911;-53
2022/03/30 02:50:45;;;;;;;;;;;11.70;56.60;;;;;;5046812;28;87040;-52
2022/03/30 02:53:11;;;;;;;;;;;11.70;56.60;;;;;;5045906;28;88542;-51
2022/03/30 02:55:37;;;;;;;;;;;11.70;56.70;;;;;;5049298;28;86918;-52
2022/03/30 02:58:04;;;;;;;;;;;11.70;56.60;;;;;;5045601;28;88035;-52
2022/03/30 03:00:30;;;;;;;;;;;11.70;56.60;;;;;;5046085;28;86994;-51
2022/03/30 03:02:55;;;;;;;;;;;11.70;56.70;;;;;;5046296;28;87822;-51
2022/03/30 03:05:21;;;;;;;;;;;11.60;56.60;;;;;;5045964;28;87676;-52
2022/03/30 03:07:47;;;;;;;;;;;11.60;56.70;;;;;;5046111;28;87062;-53
2022/03/30 03:10:14;;;;;;;;;;;11.60;56.70;;;;;;5046176;28;87969;-52
2022/03/30 03:12:39;;;;;;;;;;;11.60;56.60;;;;;;5046738;27;88616;-52
2022/03/30 03:15:06;;;;;;;;;;;11.60;56.80;;;;;;5050228;28;86619;-51
2022/03/30 03:17:31;;;;;;;;;;;11.60;56.80;;;;;;5052152;28;87572;-53
2022/03/30 03:19:57;;;;;;;;;;;11.60;56.80;;;;;;5049617;28;86894;-53
2022/03/30 03:22:22;;;;;;;;;;;11.60;56.80;;;;;;5049026;28;88098;-52
2022/03/30 03:24:49;;;;;;;;;;;11.50;56.70;;;;;;5048210;28;88422;-54
2022/03/30 03:27:14;;;;;;;;;;;11.50;56.70;;;;;;5049787;28;86860;-51
2022/03/30 03:29:40;;;;;;;;;;;11.60;56.80;;;;;;5049478;28;88083;-52
2022/03/30 03:32:06;;;;;;;;;;;11.50;56.70;;;;;;5048996;28;87418;-51
2022/03/30 03:34:32;;;;;;;;;;;11.50;56.80;;;;;;5049473;28;86871;-51
2022/03/30 03:36:58;;;;;;;;;;;11.50;56.80;;;;;;5049356;28;87113;-51
2022/03/30 03:39:24;;;;;;;;;;;11.50;56.80;;;;;;5051990;28;87881;-52
2022/03/30 03:41:50;;;;;;;;;;;11.50;56.90;;;;;;5049518;28;86846;-52
2022/03/30 03:44:15;;;;;;;;;;;11.50;57.00;;;;;;5049052;28;87515;-53
2022/03/30 03:46:41;;;;;;;;;;;11.40;57.00;;;;;;5048871;28;87775;-52
2022/03/30 03:49:08;;;;;;;;;;;11.40;56.80;;;;;;5049121;28;88625;-54
2022/03/30 03:51:34;;;;;;;;;;;11.40;56.90;;;;;;5048645;28;88628;-52
2022/03/30 03:53:59;;;;;;;;;;;11.40;56.90;;;;;;5049064;28;86841;-52
2022/03/30 03:56:25;;;;;;;;;;;11.40;56.90;;;;;;5047928;28;88192;-52
2022/03/30 03:58:52;;;;;;;;;;;11.40;57.00;;;;;;5048508;28;88577;-53
2022/03/30 04:01:18;;;;;;;;;;;11.30;56.90;;;;;;5051822;28;86892;-53
2022/03/30 04:03:43;;;;;;;;;;;11.40;57.00;;;;;;5048395;28;87431;-52
2022/03/30 04:06:09;;;;;;;;;;;11.30;57.00;;;;;;5049118;28;86858;-52
2022/03/30 04:08:35;;;;;;;;;;;11.30;57.00;;;;;;5049198;28;86848;-52
2022/03/30 04:11:01;;;;;;;;;;;11.30;57.00;;;;;;5047643;28;89392;-54
2022/03/30 04:13:26;;;;;;;;;;;11.20;57.00;;;;;;5048767;28;86958;-52
2022/03/30 04:15:52;;;;;;;;;;;11.30;57.00;;;;;;5048549;28;86886;-52
2022/03/30 04:18:18;;;;;;;;;;;11.30;57.00;;;;;;5048447;28;87422;-53
2022/03/30 04:20:44;;;;;;;;;;;11.20;57.00;;;;;;5051666;28;86889;-53
2022/03/30 04:23:10;;;;;;;;;;;11.20;57.00;;;;;;5047901;27;88542;-52
2022/03/30 04:25:36;;;;;;;;;;;11.20;57.00;;;;;;5048627;28;86954;-52
2022/03/30 04:28:02;;;;;;;;;;;11.30;57.00;;;;;;5049275;28;86065;-54
2022/03/30 04:30:27;;;;;;;;;;;11.20;57.60;;;;;;5048329;28;87852;-53
2022/03/30 04:32:53;;;;;;;;;;;11.20;57.00;;;;;;5048406;28;86941;-52
2022/03/30 04:35:24;;;;;;;;;;;11.20;57.00;;;;;;5047825;28;87870;-52
2022/03/30 04:37:51;;;;;;;;;;;11.20;57.00;;;;;;5047543;28;88510;-51
2022/03/30 04:40:17;;;;;;;;;;;11.10;57.10;;;;;;5048293;28;86869;-52
2022/03/30 04:42:42;;;;;;;;;;;11.10;57.00;;;;;;5050874;28;87936;-52
2022/03/30 04:45:08;;;;;;;;;;;11.10;57.10;;;;;;5048168;28;86837;-52
2022/03/30 04:47:34;;;;;;;;;;;11.10;57.00;;;;;;5048257;28;87835;-51
2022/03/30 04:50:00;;;;;;;;;;;11.10;57.10;;;;;;5047759;28;88675;-53
2022/03/30 04:52:26;;;;;;;;;;;11.10;57.10;;;;;;5047546;28;86195;-52
2022/03/30 04:54:51;;;;;;;;;;;11.00;57.10;;;;;;5048235;28;86784;-52
2022/03/30 04:57:17;;;;;;;;;;;11.00;57.10;;;;;;5047722;28;88050;-51
2022/03/30 04:59:43;;;;;;;;;;;11.10;57.10;;;;;;5047648;28;87738;-52
2022/03/30 05:02:08;;;;;;;;;;;11.00;57.10;;;;;;5048114;28;88783;-52
2022/03/30 05:04:34;;;;;;;;;;;11.00;57.10;;;;;;5049674;28;86978;-53
2022/03/30 05:07:00;;;;;;;;;;;11.00;57.10;;;;;;5047961;28;87692;-52
2022/03/30 05:09:25;;;;;;;;;;;11.00;57.10;;;;;;5047380;28;88642;-52
2022/03/30 05:11:51;;;;;;;;;;;11.00;57.10;;;;;;5048145;28;86884;-53
2022/03/30 05:14:17;;;;;;;;;;;11.00;57.10;;;;;;5047028;28;86936;-56
2022/03/30 05:16:43;;;;;;;;;;;11.00;57.10;;;;;;5047969;28;87811;-52
2022/03/30 05:19:09;;;;;;;;;;;11.00;57.10;;;;;;5047732;28;86835;-53
2022/03/30 05:21:35;;;;;;;;;;;11.00;57.10;;;;;;5047812;28;88019;-52
2022/03/30 05:24:00;;;;;;;;;;;11.00;57.10;;;;;;5046672;28;89449;-53
2022/03/30 05:26:28;;;;;;;;;;;11.00;57.10;;;;;;5050439;28;86905;-52
2022/03/30 05:28:54;;;;;;;;;;;11.00;57.00;;;;;;5047191;28;87874;-52
2022/03/30 05:31:20;;;;;;;;;;;10.90;57.00;;;;;;5047507;28;86879;-51
2022/03/30 05:33:45;;;;;;;;;;;11.00;57.10;;;;;;5047700;28;88173;-52
2022/03/30 05:36:12;;;;;;;;;;;10.90;57.10;;;;;;5045346;28;88460;-52
2022/03/30 05:38:38;;;;;;;;;;;10.90;57.20;;;;;;5047015;28;86789;-52
2022/03/30 05:41:04;;;;;;;;;;;10.90;57.10;;;;;;5048215;28;86843;-53
2022/03/30 05:43:30;;;;;;;;;;;10.90;57.10;;;;;;5046992;28;86870;-53
2022/03/30 05:45:56;;;;;;;;;;;10.90;57.20;;;;;;5047501;28;87022;-52
2022/03/30 05:48:21;;;;;;;;;;;10.90;57.20;;;;;;5049261;28;88092;-52
2022/03/30 05:50:47;;;;;;;;;;;10.90;57.10;;;;;;5047348;28;86845;-52
2022/03/30 05:53:17;;;;;;;;;;;10.90;57.10;;;;;;5047179;28;88027;-53
2022/03/30 05:55:44;;;;;;;;;;;10.90;57.10;;;;;;5046875;28;88662;-52
2022/03/30 05:58:10;;;;;;;;;;;10.90;57.10;;;;;;5046978;28;87075;-52
2022/03/30 06:00:36;;;;;;;;;;;10.90;57.10;;;;;;5047360;28;86985;-52
2022/03/30 06:03:02;;;;;;;;;;;10.90;57.10;;;;;;5045950;28;88022;-52
2022/03/30 06:05:28;;;;;;;;;;;10.90;57.00;;;;;;5047654;28;86472;-53
2022/03/30 06:07:57;;;;;;;;;;;10.90;57.00;;;;;;5049555;28;86974;-52
2022/03/30 06:10:24;;;;;;;;;;;10.90;57.00;;;;;;5046969;28;86865;-53
2022/03/30 06:12:50;;;;;;;;;;;10.90;57.00;;;;;;5046388;28;88220;-53
2022/03/30 06:15:16;;;;;;;;;;;10.90;56.80;;;;;;5046782;28;87057;-53
2022/03/30 06:17:42;;;;;;;;;;;11.00;56.90;;;;;;5047019;28;86880;-52
2022/03/30 06:20:08;;;;;;;;;;;10.90;56.90;;;;;;5046838;28;87861;-52
2022/03/30 06:22:35;;;;;;;;;;;11.00;57.00;;;;;;5046424;28;88823;-51
2022/03/30 06:25:01;;;;;;;;;;;11.00;56.90;;;;;;5046746;28;87176;-52
2022/03/30 06:27:29;;;;;;;;;;;10.90;56.90;;;;;;5046823;28;87833;-52
2022/03/30 06:29:55;;;;;;;;;;;10.90;57.00;;;;;;5049763;28;87919;-52
2022/03/30 06:32:20;;;;;;;;;;;10.90;57.00;;;;;;5046672;28;87018;-52
2022/03/30 06:34:46;;;;;;;;;;;10.90;57.00;;;;;;5046264;28;88672;-52
2022/03/30 06:37:12;;;;;;;;;;;10.90;57.00;;;;;;5045650;28;88142;-51
2022/03/30 06:39:38;;;;;;;;;;;10.90;57.00;;;;;;5046507;28;88736;-52
2022/03/30 06:42:05;;;;;;;;;;;10.90;57.10;;;;;;5046117;28;88687;-51
2022/03/30 06:44:32;;;;;;;;;;;10.90;57.10;;;;;;5046701;28;87117;-53
2022/03/30 06:46:58;;;;;;;;;;;10.90;57.10;;;;;;5046613;28;87946;-52
2022/03/30 06:49:23;;;;;;;;;;;10.90;57.10;;;;;;5046031;28;88626;-51
2022/03/30 06:51:49;;;;;;;;;;;10.90;57.10;;;;;;5049338;28;87293;-52
2022/03/30 06:54:15;;;;;;;;;;;10.90;57.10;;;;;;5046602;28;87052;-52
2022/03/30 06:56:42;;;;;;;;;;;10.90;57.10;;;;;;5046305;28;86890;-52
2022/03/30 06:59:07;;;;;;;;;;;10.90;57.10;;;;;;5046276;28;87931;-52
2022/03/30 07:01:34;;;;;;;;;;;10.90;57.10;;;;;;5045275;28;89500;-53
2022/03/30 07:04:00;;;;;;;;;;;10.90;57.10;;;;;;5046262;28;86786;-52
2022/03/30 07:06:25;;;;;;;;;;;10.90;57.10;;;;;;5046192;28;88386;-52
2022/03/30 07:11:35;;;;;;;;;;;11.00;57.10;;;;;;5043138;28;87131;-52
2022/03/30 07:14:01;;;;;;;;;;;10.90;57.10;;;;;;5048651;28;87094;-52
2022/03/30 07:16:26;;;;;;;;;;;10.90;57.10;;;;;;5046083;28;86894;-52
2022/03/30 07:18:53;;;;;;;;;;;11.00;57.10;;;;;;5046425;28;87763;-51
2022/03/30 07:21:20;;;;;;;;;;;11.00;57.10;;;;;;5045583;28;89027;-51
2022/03/30 07:23:45;;;;;;;;;;;11.00;57.20;;;;;;5045971;28;87155;-52
2022/03/30 07:26:11;;;;;;;;;;;11.00;57.20;;;;;;5045057;28;87841;-52
2022/03/30 07:28:37;;;;;;;;;;;11.00;57.30;;;;;;5045790;28;87525;-53
2022/03/30 07:31:03;;;;;;;;;;;11.00;57.30;;;;;;5045851;28;86960;-53
2022/03/30 07:33:31;;;;;;;;;;;11.00;57.30;;;;;;5045725;28;88132;-54
2022/03/30 07:35:57;;;;;;;;;;;11.00;57.20;;;;;;5048340;28;88637;-52
2022/03/30 07:38:22;;;;;;;;;;;11.00;57.10;;;;;;5045432;28;88080;-52
2022/03/30 07:40:48;;;;;;;;;;;11.00;57.80;;;;;;5045206;28;88867;-56
2022/03/30 07:43:15;;;;;;;;;;;11.00;57.20;;;;;;5046621;28;86193;-52
2022/03/30 07:45:41;;;;;;;;;;;11.00;57.10;;;;;;5045660;28;86865;-52
2022/03/30 07:48:08;;;;;;;;;;;11.00;57.10;;;;;;5045380;28;87678;-52
2022/03/30 07:50:35;;;;;;;;;;;11.00;57.20;;;;;;5044938;28;87832;-52
2022/03/30 07:53:00;;;;;;;;;;;11.00;57.20;;;;;;5045580;28;89168;-52
2022/03/30 07:55:28;;;;;;;;;;;11.00;57.20;;;;;;5045112;28;88527;-52
2022/03/30 07:57:54;;;;;;;;;;;11.00;57.10;;;;;;5048378;27;87348;-52
2022/03/30 08:00:21;;;;;;;;;;;11.00;57.20;;;;;;5048612;28;88482;-52
2022/03/30 08:02:47;;;;;;;;;;;11.00;57.10;;;;;;5049048;28;86886;-54
2022/03/30 08:05:14;;;;;;;;;;;11.00;57.20;;;;;;5048980;28;87992;-52
2022/03/30 08:07:40;;;;;;;;;;;11.10;57.20;;;;;;5049043;28;86963;-51
2022/03/30 08:10:08;;;;;;;;;;;11.10;56.90;;;;;;5048815;28;86862;-52
2022/03/30 08:12:34;;;;;;;;;;;11.10;57.00;;;;;;5048833;28;87328;-52
2022/03/30 08:15:01;;;;;;;;;;;11.10;56.90;;;;;;5047939;28;88468;-52
2022/03/30 08:17:26;;;;;;;;;;;11.10;56.80;;;;;;5051787;28;86909;-52
2022/03/30 08:19:52;;;;;;;;;;;11.10;56.70;;;;;;5048259;28;87614;-55
2022/03/30 08:22:27;;;;;;;;;;;11.10;56.70;;;;;;5048718;28;87055;-53
2022/03/30 08:24:53;;;;;;;;;;;11.10;56.80;;;;;;5048675;28;87815;-52
2022/03/30 08:27:20;;;;;;;;;;;11.10;56.80;;;;;;5048130;28;88475;-53
2022/03/30 08:29:46;;;;;;;;;;;11.10;56.60;;;;;;5048670;28;86904;-52
2022/03/30 08:32:12;;;;;;;;;;;11.10;56.70;;;;;;5049024;28;87805;-54
2022/03/30 08:34:39;;;;;;;;;;;11.10;56.70;;;;;;5048185;28;87657;-52
2022/03/30 08:37:05;;;;;;;;;;;11.10;56.60;;;;;;5048490;28;87128;-53
2022/03/30 08:39:31;;;;;;;;;;;11.10;56.60;;;;;;5050076;28;87971;-52
2022/03/30 08:41:56;;;;;;;;;;;11.20;56.60;;;;;;5048384;28;87016;-52
2022/03/30 08:44:22;;;;;;;;;;;11.20;56.50;;;;;;5048352;28;87960;-53
2022/03/30 08:46:48;;;;;;;;;;;11.20;56.50;;;;;;5047861;28;87700;-52
2022/03/30 08:49:14;;;;;;;;;;;11.20;56.60;;;;;;5048230;28;86934;-51
2022/03/30 08:51:41;;;;;;;;;;;11.20;56.60;;;;;;5048260;28;87912;-52
2022/03/30 08:54:10;;;;;;;;;;;11.20;56.60;;;;;;5047811;28;88478;-53
2022/03/30 08:56:37;;;;;;;;;;;11.20;56.60;;;;;;5048693;28;86417;-52
2022/03/30 08:59:15;;;;;;;;;;;11.20;56.50;;;;;;5048094;28;87392;-53
2022/03/30 09:01:41;;;;;;;;;;;11.20;56.50;;;;;;5050247;28;87186;-53
2022/03/30 09:04:09;;;;;;;;;;;11.20;56.50;;;;;;5047798;28;87823;-52
2022/03/30 09:06:35;;;;;;;;;;;11.20;56.60;;;;;;5047672;28;88743;-52
2022/03/30 09:09:02;;;;;;;;;;;11.30;56.50;;;;;;5047924;28;86973;-52
2022/03/30 09:11:44;;;;;;;;;;;11.30;57.20;;;;;;5046718;27;87186;-52
2022/03/30 09:14:10;;;;;;;;;;;11.30;56.50;;;;;;5047311;28;88485;-54
2022/03/30 09:16:44;;;;;;;;;;;11.30;56.60;;;;;;5047866;28;86889;-53
2022/03/30 09:19:11;;;;;;;;;;;11.30;56.60;;;;;;5047634;28;88011;-53
2022/03/30 09:21:53;;;;;;;;;;;11.30;56.60;;;;;;5047815;28;87870;-54
2022/03/30 09:24:23;;;;;;;;;;;11.40;56.80;;;;;;5050961;28;87131;-53
2022/03/30 09:26:50;;;;;;;;;;;11.40;56.80;;;;;;5047259;28;88829;-53
2022/03/30 09:29:18;;;;;;;;;;;11.40;57.00;;;;;;5047076;28;87706;-53
2022/03/30 09:31:44;;;;;;;;;;;11.40;57.10;;;;;;5047638;28;87664;-53
2022/03/30 09:34:16;;;;;;;;;;;11.40;57.80;;;;;;5047156;28;87980;-52
2022/03/30 09:36:43;;;;;;;;;;;11.40;57.30;;;;;;5047592;28;86885;-52
2022/03/30 09:39:27;;;;;;;;;;;11.40;57.40;;;;;;5030008;28;87827;-52
2022/03/30 09:41:53;;;;;;;;;;;11.40;57.30;;;;;;5026894;28;88264;-52
2022/03/30 09:44:19;;;;;;;;;;;11.40;57.10;;;;;;5027281;28;86926;-54
2022/03/30 09:46:55;;;;;;;;;;;11.40;57.20;;;;;;5030215;28;87969;-53
2022/03/30 09:49:33;;;;;;;;;;;11.50;57.20;;;;;;5027236;28;86894;-52
2022/03/30 09:51:58;;;;;;;;;;;11.50;57.30;;;;;;5027190;28;87915;-54
2022/03/30 09:54:41;;;;;;;;;;;11.50;57.90;;;;;;5026014;28;89562;-52
2022/03/30 09:57:11;;;;;;;;;;;11.50;57.40;;;;;;5027019;28;86875;-53
2022/03/30 09:59:55;;;;;;;;;;;11.50;57.60;;;;;;5026967;28;86998;-52
2022/03/30 10:02:21;;;;;;;;;;;11.50;57.50;;;;;;5026506;28;88631;-53
2022/03/30 10:04:47;;;;;;;;;;;11.60;57.40;;;;;;5026936;28;87128;-53
2022/03/30 10:07:13;;;;;;;;;;;11.60;57.60;;;;;;5026819;28;88069;-53
2022/03/30 10:09:39;;;;;;;;;;;11.60;57.80;;;;;;5029399;28;88622;-53
2022/03/30 10:12:05;;;;;;;;;;;11.60;57.50;;;;;;5027309;28;87867;-52
2022/03/30 10:14:33;;;;;;;;;;;11.60;57.70;;;;;;5026266;28;88529;-53
2022/03/30 10:16:59;;;;;;;;;;;11.60;57.80;;;;;;5026683;28;86777;-53
2022/03/30 10:19:24;;;;;;;;;;;11.70;57.60;;;;;;5026029;28;88027;-54
2022/03/30 10:22:07;;;;;;;;;;;11.70;57.60;;;;;;5026242;28;87443;-52
2022/03/30 10:24:48;;;;;;;;;;;11.70;57.60;;;;;;5026666;28;86829;-52
2022/03/30 10:27:27;;;;;;;;;;;11.70;57.60;;;;;;5026629;28;87012;-53
2022/03/30 10:29:54;;;;;;;;;;;11.80;57.60;;;;;;5028493;28;87609;-53
2022/03/30 10:32:21;;;;;;;;;;;11.70;57.90;;;;;;5026523;28;86968;-52
2022/03/30 10:34:51;;;;;;;;;;;11.80;57.80;;;;;;5026183;28;87860;-52
2022/03/30 10:37:24;;;;;;;;;;;11.80;58.00;;;;;;5026896;28;86135;-53
2022/03/30 10:40:16;;;;;;;;;;;11.80;58.10;;;;;;5046504;28;86816;-52
2022/03/30 10:42:49;;;;;;;;;;;11.80;57.90;;;;;;5043144;27;88626;-53
2022/03/30 10:45:18;;;;;;;;;;;11.80;58.00;;;;;;5045848;28;88248;-53
2022/03/30 10:48:02;;;;;;;;;;;11.80;58.00;;;;;;5045670;28;88015;-52
2022/03/30 10:50:41;;;;;;;;;;;11.90;58.10;;;;;;5046367;28;87514;-53
2022/03/30 10:53:25;;;;;;;;;;;11.90;58.10;;;;;;5049337;28;86865;-53
2022/03/30 10:55:51;;;;;;;;;;;11.90;58.20;;;;;;5046221;28;87587;-53
2022/03/30 10:58:20;;;;;;;;;;;12.00;58.10;;;;;;5046326;28;86788;-52
2022/03/30 11:00:45;;;;;;;;;;;12.00;58.10;;;;;;5046388;28;88038;-52
2022/03/30 11:03:14;;;;;;;;;;;12.00;57.90;;;;;;5046376;28;86903;-52
2022/03/30 11:05:44;;;;;;;;;;;12.00;58.00;;;;;;5045900;28;87072;-55
2022/03/30 11:08:28;;;;;;;;;;;12.00;58.00;;;;;;5046390;28;87104;-53
2022/03/30 11:10:54;;;;;;;;;;;12.10;57.90;;;;;;5045128;28;89422;-52
2022/03/30 11:13:24;;;;;;;;;;;12.10;58.50;;;;;;5046308;28;87027;-52
2022/03/30 11:16:03;;;;;;;;;;;12.10;57.90;;;;;;5047905;28;86934;-52
2022/03/30 11:18:31;;;;;;;;;;;12.10;57.70;;;;;;5045801;28;87323;-56
2022/03/30 11:21:09;;;;;;;;;;;12.10;58.00;;;;;;5046393;28;86847;-52
2022/03/30 11:23:58;;;;;;;;;;;12.10;57.70;;;;;;5045795;28;88454;-52
2022/03/30 11:26:44;;;;;;;;;;;12.20;57.90;;;;;;5037939;27;86997;-52
2022/03/30 11:29:29;;;;;;;;;;;12.20;57.70;;;;;;5046083;27;86654;-53
2022/03/30 11:31:54;;;;;;;;;;;12.20;57.60;;;;;;5045641;28;88664;-52
2022/03/30 11:34:30;;;;;;;;;;;12.20;57.60;;;;;;5048293;27;86970;-52
2022/03/30 11:36:56;;;;;;;;;;;12.20;57.70;;;;;;5048869;28;88099;-52
2022/03/30 11:39:29;;;;;;;;;;;12.30;57.70;;;;;;5051525;28;87859;-53
2022/03/30 11:41:56;;;;;;;;;;;12.30;57.70;;;;;;5049692;28;87116;-52
2022/03/30 11:47:13;;;;;;;;;;;12.30;57.70;;;;;;5049650;28;86784;-52
2022/03/30 11:49:55;;;;;;;;;;;12.40;57.70;;;;;;5049357;28;87881;-53
2022/03/30 11:52:22;;;;;;;;;;;12.30;57.80;;;;;;5048803;28;87707;-53
2022/03/30 11:54:51;;;;;;;;;;;12.40;57.80;;;;;;5049556;28;86174;-53
2022/03/30 11:57:17;;;;;;;;;;;12.40;57.90;;;;;;5049394;28;86791;-53
2022/03/30 11:59:52;;;;;;;;;;;12.40;57.80;;;;;;5048768;28;87551;-53
2022/03/30 12:02:19;;;;;;;;;;;12.40;57.80;;;;;;5051642;28;87868;-53
2022/03/30 12:04:45;;;;;;;;;;;12.40;57.70;;;;;;5048922;28;87497;-53
2022/03/30 12:07:14;;;;;;;;;;;12.40;57.70;;;;;;5048633;28;86800;-55
2022/03/30 12:09:47;;;;;;;;;;;12.40;57.80;;;;;;5048880;28;87146;-53
2022/03/30 12:12:12;;;;;;;;;;;12.40;57.70;;;;;;5048525;28;88407;-55
2022/03/30 12:14:39;;;;;;;;;;;12.50;57.90;;;;;;5048844;28;87067;-53
2022/03/30 12:17:04;;;;;;;;;;;12.50;57.80;;;;;;5048785;28;88154;-53
2022/03/30 12:19:30;;;;;;;;;;;12.50;57.80;;;;;;5048800;28;88011;-53
2022/03/30 12:22:03;;;;;;;;;;;12.50;57.70;;;;;;5048807;28;87029;-54
2022/03/30 12:24:33;;;;;;;;;;;12.60;57.80;;;;;;5051110;28;87900;-53
2022/03/30 12:26:59;;;;;;;;;;;12.60;57.80;;;;;;5048430;28;87798;-53
2022/03/30 12:29:29;;;;;;;;;;;12.60;57.80;;;;;;5048830;28;87791;-53
2022/03/30 12:31:59;;;;;;;;;;;12.60;57.70;;;;;;5048182;28;88759;-53
2022/03/30 12:34:26;;;;;;;;;;;12.70;57.70;;;;;;5048532;28;86847;-54
2022/03/30 12:36:53;;;;;;;;;;;12.70;57.70;;;;;;5048468;28;87101;-53
2022/03/30 12:39:41;;;;;;;;;;;12.70;57.60;;;;;;5047748;28;88748;-53
2022/03/30 12:42:08;;;;;;;;;;;12.70;57.70;;;;;;5048688;28;86854;-53
2022/03/30 12:44:37;;;;;;;;;;;12.70;57.60;;;;;;5051318;27;87059;-53
2022/03/30 12:47:03;;;;;;;;;;;12.70;57.60;;;;;;5048385;28;86898;-54
2022/03/30 12:49:33;;;;;;;;;;;12.70;57.70;;;;;;5048274;28;88044;-55
2022/03/30 12:52:09;;;;;;;;;;;12.80;57.70;;;;;;5047244;28;88587;-53
2022/03/30 12:54:35;;;;;;;;;;;12.80;57.70;;;;;;5048350;28;86853;-54
2022/03/30 12:57:01;;;;;;;;;;;12.80;57.50;;;;;;5048473;28;86850;-53
2022/03/30 12:59:28;;;;;;;;;;;12.90;57.60;;;;;;5047692;28;87596;-53
2022/03/30 13:01:53;;;;;;;;;;;12.90;57.50;;;;;;5048106;28;86854;-53
2022/03/30 13:04:24;;;;;;;;;;;12.90;57.60;;;;;;5048035;28;88090;-53
2022/03/30 13:07:06;;;;;;;;;;;12.90;57.50;;;;;;5050480;28;88467;-52
2022/03/30 13:09:32;;;;;;;;;;;13.00;57.50;;;;;;5048370;28;88015;-53
2022/03/30 13:11:57;;;;;;;;;;;13.00;57.50;;;;;;5047942;28;87344;-53
2022/03/30 13:14:24;;;;;;;;;;;13.00;57.50;;;;;;5047876;28;86981;-52
2022/03/30 13:16:57;;;;;;;;;;;13.00;57.50;;;;;;5047261;28;87833;-54
2022/03/30 13:19:24;;;;;;;;;;;13.00;57.50;;;;;;5047344;28;88562;-53
2022/03/30 13:21:50;;;;;;;;;;;13.00;57.40;;;;;;5047763;28;86867;-52
2022/03/30 13:24:21;;;;;;;;;;;13.00;57.40;;;;;;5047609;28;87997;-53
2022/03/30 13:26:51;;;;;;;;;;;13.10;58.10;;;;;;5047301;28;88780;-53
2022/03/30 13:29:18;;;;;;;;;;;13.10;57.30;;;;;;5050790;28;87118;-53
2022/03/30 13:31:46;;;;;;;;;;;13.10;57.50;;;;;;5047409;28;88444;-53
2022/03/30 13:34:13;;;;;;;;;;;13.10;57.50;;;;;;5047979;28;86042;-53
2022/03/30 13:36:39;;;;;;;;;;;13.10;57.30;;;;;;5047670;28;86854;-52
2022/03/30 13:39:05;;;;;;;;;;;13.20;57.50;;;;;;5046774;28;88377;-54
2022/03/30 13:41:31;;;;;;;;;;;13.20;57.40;;;;;;5046790;28;87816;-53
2022/03/30 13:43:57;;;;;;;;;;;13.20;57.20;;;;;;5047843;28;87732;-54
2022/03/30 13:46:23;;;;;;;;;;;13.20;57.30;;;;;;5047003;28;88430;-53
2022/03/30 13:48:49;;;;;;;;;;;13.20;57.20;;;;;;5047390;28;87149;-53
2022/03/30 13:51:14;;;;;;;;;;;13.20;57.10;;;;;;5049846;28;87761;-52
2022/03/30 13:53:40;;;;;;;;;;;13.30;57.20;;;;;;5047310;28;87257;-52
2022/03/30 13:56:06;;;;;;;;;;;13.30;57.10;;;;;;5046901;28;86824;-52
2022/03/30 13:58:34;;;;;;;;;;;13.30;57.00;;;;;;5047296;28;87095;-53
2022/03/30 14:00:59;;;;;;;;;;;13.30;57.10;;;;;;5047095;28;86890;-55
2022/03/30 14:03:26;;;;;;;;;;;13.30;57.00;;;;;;5047158;28;87940;-52
2022/03/30 14:05:52;;;;;;;;;;;13.40;56.90;;;;;;5045998;28;89218;-53
2022/03/30 14:08:18;;;;;;;;;;;13.30;56.80;;;;;;5046990;28;86923;-53
2022/03/30 14:10:43;;;;;;;;;;;13.30;57.00;;;;;;5047365;28;86969;-53
2022/03/30 14:13:10;;;;;;;;;;;13.40;57.00;;;;;;5049553;28;88543;-53
2022/03/30 14:15:38;;;;;;;;;;;13.30;57.00;;;;;;5047403;28;86988;-53
2022/03/30 14:18:03;;;;;;;;;;;13.40;56.90;;;;;;5037599;28;87754;-53
2022/03/30 14:20:29;;;;;;;;;;;13.40;56.80;;;;;;5046825;28;87015;-53
2022/03/30 14:22:55;;;;;;;;;;;13.40;56.80;;;;;;5047377;28;87057;-52
2022/03/30 14:25:21;;;;;;;;;;;13.40;56.80;;;;;;5046690;28;87474;-52
2022/03/30 14:27:47;;;;;;;;;;;13.40;56.70;;;;;;5046743;28;87159;-53